sensor_id;sensor_type;location;lat;lon;timestamp;P1;durP1;ratioP1;P2;durP2;ratioP2
74344;SDS011;62776;50.518;6.732;2023-07-02T00:00:50;3.30;;;2.67;;
74344;SDS011;62776;50.518;6.732;2023-07-02T00:03:37;4.03;;;2.40;;
74344;SDS011;62776;50.518;6.732;2023-07-02T00:06:24;3.05;;;2.70;;
74344;SDS011;62776;50.518;6.732;2023-07-02T00:09:10;4.53;;;3.10;;
74344;SDS011;62776;50.518;6.732;2023-07-02T00:11:58;5.55;;;2.50;;
74344;SDS011;62776;50.518;6.732;2023-07-02T00:14:45;2.88;;;2.30;;
74344;SDS011;62776;50.518;6.732;2023-07-02T00:17:33;3.80;;;2.90;;
74344;SDS011;62776;50.518;6.732;2023-07-02T00:20:19;4.88;;;2.50;;
74344;SDS011;62776;50.518;6.732;2023-07-02T00:23:07;4.70;;;3.35;;
74344;SDS011;62776;50.518;6.732;2023-07-02T00:26:04;3.63;;;2.90;;
74344;SDS011;62776;50.518;6.732;2023-07-02T00:28:50;4.05;;;3.08;;
74344;SDS011;62776;50.518;6.732;2023-07-02T00:31:38;3.83;;;3.05;;
74344;SDS011;62776;50.518;6.732;2023-07-02T00:34:25;3.38;;;2.80;;
74344;SDS011;62776;50.518;6.732;2023-07-02T00:37:20;3.83;;;2.95;;
74344;SDS011;62776;50.518;6.732;2023-07-02T00:40:07;6.88;;;3.83;;
74344;SDS011;62776;50.518;6.732;2023-07-02T00:42:54;6.20;;;4.30;;
74344;SDS011;62776;50.518;6.732;2023-07-02T00:45:42;5.53;;;3.85;;
74344;SDS011;62776;50.518;6.732;2023-07-02T00:48:30;6.30;;;4.53;;
74344;SDS011;62776;50.518;6.732;2023-07-02T00:51:24;5.50;;;3.78;;
74344;SDS011;62776;50.518;6.732;2023-07-02T00:54:12;5.93;;;4.80;;
74344;SDS011;62776;50.518;6.732;2023-07-02T00:56:58;5.10;;;4.40;;
74344;SDS011;62776;50.518;6.732;2023-07-02T00:59:48;7.07;;;5.05;;
74344;SDS011;62776;50.518;6.732;2023-07-02T01:02:53;5.28;;;4.68;;
74344;SDS011;62776;50.518;6.732;2023-07-02T01:05:26;7.40;;;5.47;;
74344;SDS011;62776;50.518;6.732;2023-07-02T01:08:20;5.55;;;4.90;;
74344;SDS011;62776;50.518;6.732;2023-07-02T01:11:06;7.60;;;5.63;;
74344;SDS011;62776;50.518;6.732;2023-07-02T01:13:58;7.75;;;5.97;;
74344;SDS011;62776;50.518;6.732;2023-07-02T01:16:52;6.07;;;5.32;;
74344;SDS011;62776;50.518;6.732;2023-07-02T01:22:39;7.68;;;5.68;;
74344;SDS011;62776;50.518;6.732;2023-07-02T01:25:26;8.15;;;6.10;;
74344;SDS011;62776;50.518;6.732;2023-07-02T01:28:12;11.18;;;5.65;;
74344;SDS011;62776;50.518;6.732;2023-07-02T01:31:03;6.28;;;5.55;;
74344;SDS011;62776;50.518;6.732;2023-07-02T01:36:46;8.40;;;4.78;;
74344;SDS011;62776;50.518;6.732;2023-07-02T01:39:33;7.40;;;5.75;;
74344;SDS011;62776;50.518;6.732;2023-07-02T01:42:25;8.93;;;6.03;;
74344;SDS011;62776;50.518;6.732;2023-07-02T01:45:12;6.35;;;5.35;;
74344;SDS011;62776;50.518;6.732;2023-07-02T01:48:00;6.45;;;5.25;;
74344;SDS011;62776;50.518;6.732;2023-07-02T01:50:49;7.07;;;6.28;;
74344;SDS011;62776;50.518;6.732;2023-07-02T01:53:36;8.27;;;6.03;;
74344;SDS011;62776;50.518;6.732;2023-07-02T01:56:23;9.13;;;6.78;;
74344;SDS011;62776;50.518;6.732;2023-07-02T01:59:09;6.60;;;5.93;;
74344;SDS011;62776;50.518;6.732;2023-07-02T02:01:56;7.65;;;6.70;;
74344;SDS011;62776;50.518;6.732;2023-07-02T02:04:45;8.65;;;7.35;;
74344;SDS011;62776;50.518;6.732;2023-07-02T02:07:31;8.57;;;7.40;;
74344;SDS011;62776;50.518;6.732;2023-07-02T02:10:25;8.27;;;6.75;;
74344;SDS011;62776;50.518;6.732;2023-07-02T02:13:12;10.32;;;7.15;;
74344;SDS011;62776;50.518;6.732;2023-07-02T02:15:59;8.23;;;6.85;;
74344;SDS011;62776;50.518;6.732;2023-07-02T02:18:46;11.52;;;7.25;;
74344;SDS011;62776;50.518;6.732;2023-07-02T02:21:32;8.15;;;6.88;;
74344;SDS011;62776;50.518;6.732;2023-07-02T02:24:18;9.02;;;7.20;;
74344;SDS011;62776;50.518;6.732;2023-07-02T02:27:06;11.02;;;7.93;;
74344;SDS011;62776;50.518;6.732;2023-07-02T02:29:52;10.35;;;8.10;;
74344;SDS011;62776;50.518;6.732;2023-07-02T02:32:39;9.40;;;6.50;;
74344;SDS011;62776;50.518;6.732;2023-07-02T02:35:26;10.35;;;8.48;;
74344;SDS011;62776;50.518;6.732;2023-07-02T02:38:18;13.68;;;8.35;;
74344;SDS011;62776;50.518;6.732;2023-07-02T02:41:16;8.05;;;7.25;;
74344;SDS011;62776;50.518;6.732;2023-07-02T02:44:03;9.30;;;7.50;;
74344;SDS011;62776;50.518;6.732;2023-07-02T02:46:51;10.00;;;8.57;;
74344;SDS011;62776;50.518;6.732;2023-07-02T02:49:37;7.50;;;6.70;;
74344;SDS011;62776;50.518;6.732;2023-07-02T02:52:24;10.98;;;7.55;;
74344;SDS011;62776;50.518;6.732;2023-07-02T02:55:13;8.35;;;7.43;;
74344;SDS011;62776;50.518;6.732;2023-07-02T02:58:00;8.70;;;7.78;;
74344;SDS011;62776;50.518;6.732;2023-07-02T03:00:46;8.23;;;7.40;;
74344;SDS011;62776;50.518;6.732;2023-07-02T03:03:40;9.25;;;7.25;;
74344;SDS011;62776;50.518;6.732;2023-07-02T03:06:30;8.82;;;7.07;;
74344;SDS011;62776;50.518;6.732;2023-07-02T03:09:16;9.05;;;8.10;;
74344;SDS011;62776;50.518;6.732;2023-07-02T03:12:03;13.15;;;8.48;;
74344;SDS011;62776;50.518;6.732;2023-07-02T03:14:51;10.00;;;7.47;;
74344;SDS011;62776;50.518;6.732;2023-07-02T03:17:39;8.82;;;7.93;;
74344;SDS011;62776;50.518;6.732;2023-07-02T03:20:25;10.20;;;8.77;;
74344;SDS011;62776;50.518;6.732;2023-07-02T03:23:13;10.50;;;8.48;;
74344;SDS011;62776;50.518;6.732;2023-07-02T03:26:01;10.70;;;9.20;;
74344;SDS011;62776;50.518;6.732;2023-07-02T03:28:48;10.75;;;8.95;;
74344;SDS011;62776;50.518;6.732;2023-07-02T03:31:38;11.13;;;9.68;;
74344;SDS011;62776;50.518;6.732;2023-07-02T03:34:24;13.18;;;8.93;;
74344;SDS011;62776;50.518;6.732;2023-07-02T03:37:16;11.65;;;9.93;;
74344;SDS011;62776;50.518;6.732;2023-07-02T03:40:03;11.23;;;9.95;;
74344;SDS011;62776;50.518;6.732;2023-07-02T03:42:52;12.43;;;9.13;;
74344;SDS011;62776;50.518;6.732;2023-07-02T03:45:39;13.23;;;9.85;;
74344;SDS011;62776;50.518;6.732;2023-07-02T03:48:25;9.98;;;8.48;;
74344;SDS011;62776;50.518;6.732;2023-07-02T03:51:13;11.60;;;9.40;;
74344;SDS011;62776;50.518;6.732;2023-07-02T03:53:59;12.13;;;9.65;;
74344;SDS011;62776;50.518;6.732;2023-07-02T03:56:46;13.27;;;10.25;;
74344;SDS011;62776;50.518;6.732;2023-07-02T03:59:33;12.05;;;9.82;;
74344;SDS011;62776;50.518;6.732;2023-07-02T04:02:22;10.00;;;8.55;;
74344;SDS011;62776;50.518;6.732;2023-07-02T04:05:08;13.70;;;10.45;;
74344;SDS011;62776;50.518;6.732;2023-07-02T04:07:54;12.23;;;9.93;;
74344;SDS011;62776;50.518;6.732;2023-07-02T04:10:41;11.35;;;9.73;;
74344;SDS011;62776;50.518;6.732;2023-07-02T04:13:30;12.30;;;10.95;;
74344;SDS011;62776;50.518;6.732;2023-07-02T04:16:16;13.00;;;10.18;;
74344;SDS011;62776;50.518;6.732;2023-07-02T04:19:04;13.00;;;10.02;;
74344;SDS011;62776;50.518;6.732;2023-07-02T04:21:50;12.13;;;9.90;;
74344;SDS011;62776;50.518;6.732;2023-07-02T04:24:37;16.35;;;10.88;;
74344;SDS011;62776;50.518;6.732;2023-07-02T04:27:23;11.20;;;10.05;;
74344;SDS011;62776;50.518;6.732;2023-07-02T04:30:12;13.60;;;10.25;;
74344;SDS011;62776;50.518;6.732;2023-07-02T04:32:59;15.05;;;11.85;;
74344;SDS011;62776;50.518;6.732;2023-07-02T04:35:45;12.38;;;10.40;;
74344;SDS011;62776;50.518;6.732;2023-07-02T04:38:32;13.77;;;11.07;;
74344;SDS011;62776;50.518;6.732;2023-07-02T04:41:19;15.38;;;11.45;;
74344;SDS011;62776;50.518;6.732;2023-07-02T04:44:05;14.57;;;11.85;;
74344;SDS011;62776;50.518;6.732;2023-07-02T04:46:51;13.20;;;10.82;;
74344;SDS011;62776;50.518;6.732;2023-07-02T04:49:38;12.85;;;10.02;;
74344;SDS011;62776;50.518;6.732;2023-07-02T04:52:27;13.10;;;10.65;;
74344;SDS011;62776;50.518;6.732;2023-07-02T04:55:14;14.70;;;10.93;;
74344;SDS011;62776;50.518;6.732;2023-07-02T04:58:00;13.80;;;11.30;;
74344;SDS011;62776;50.518;6.732;2023-07-02T05:00:48;12.57;;;11.15;;
74344;SDS011;62776;50.518;6.732;2023-07-02T05:03:40;14.03;;;10.97;;
74344;SDS011;62776;50.518;6.732;2023-07-02T05:06:32;12.40;;;11.13;;
74344;SDS011;62776;50.518;6.732;2023-07-02T05:09:18;13.43;;;10.60;;
74344;SDS011;62776;50.518;6.732;2023-07-02T05:12:04;14.93;;;9.98;;
74344;SDS011;62776;50.518;6.732;2023-07-02T05:14:52;12.48;;;10.93;;
74344;SDS011;62776;50.518;6.732;2023-07-02T05:17:39;12.15;;;10.88;;
74344;SDS011;62776;50.518;6.732;2023-07-02T05:20:27;13.10;;;10.77;;
74344;SDS011;62776;50.518;6.732;2023-07-02T05:23:13;14.43;;;10.88;;
74344;SDS011;62776;50.518;6.732;2023-07-02T05:26:07;13.45;;;10.60;;
74344;SDS011;62776;50.518;6.732;2023-07-02T05:28:55;12.35;;;11.10;;
74344;SDS011;62776;50.518;6.732;2023-07-02T05:31:42;11.82;;;10.65;;
74344;SDS011;62776;50.518;6.732;2023-07-02T05:34:29;11.27;;;10.10;;
74344;SDS011;62776;50.518;6.732;2023-07-02T05:37:20;14.23;;;10.82;;
74344;SDS011;62776;50.518;6.732;2023-07-02T05:40:15;12.68;;;10.70;;
74344;SDS011;62776;50.518;6.732;2023-07-02T05:43:10;11.18;;;9.85;;
74344;SDS011;62776;50.518;6.732;2023-07-02T05:45:57;13.85;;;11.10;;
74344;SDS011;62776;50.518;6.732;2023-07-02T05:48:47;11.63;;;10.13;;
74344;SDS011;62776;50.518;6.732;2023-07-02T05:51:36;15.95;;;11.27;;
74344;SDS011;62776;50.518;6.732;2023-07-02T05:54:22;14.35;;;11.40;;
74344;SDS011;62776;50.518;6.732;2023-07-02T05:57:08;12.48;;;10.95;;
74344;SDS011;62776;50.518;6.732;2023-07-02T05:59:55;13.27;;;10.98;;
74344;SDS011;62776;50.518;6.732;2023-07-02T06:02:41;15.02;;;11.55;;
74344;SDS011;62776;50.518;6.732;2023-07-02T06:05:33;12.65;;;10.85;;
74344;SDS011;62776;50.518;6.732;2023-07-02T06:08:25;13.15;;;11.02;;
74344;SDS011;62776;50.518;6.732;2023-07-02T06:11:12;15.52;;;11.57;;
74344;SDS011;62776;50.518;6.732;2023-07-02T06:13:58;12.30;;;10.45;;
74344;SDS011;62776;50.518;6.732;2023-07-02T06:16:47;14.38;;;11.07;;
74344;SDS011;62776;50.518;6.732;2023-07-02T06:19:33;11.85;;;10.38;;
74344;SDS011;62776;50.518;6.732;2023-07-02T06:22:28;13.20;;;10.25;;
74344;SDS011;62776;50.518;6.732;2023-07-02T06:25:14;13.82;;;10.40;;
74344;SDS011;62776;50.518;6.732;2023-07-02T06:28:06;11.10;;;9.90;;
74344;SDS011;62776;50.518;6.732;2023-07-02T06:30:54;13.38;;;9.88;;
74344;SDS011;62776;50.518;6.732;2023-07-02T06:33:41;13.30;;;10.20;;
74344;SDS011;62776;50.518;6.732;2023-07-02T06:36:27;12.23;;;9.80;;
74344;SDS011;62776;50.518;6.732;2023-07-02T06:39:13;10.48;;;9.05;;
74344;SDS011;62776;50.518;6.732;2023-07-02T06:42:06;10.38;;;9.23;;
74344;SDS011;62776;50.518;6.732;2023-07-02T06:44:52;11.02;;;9.68;;
74344;SDS011;62776;50.518;6.732;2023-07-02T06:47:39;12.07;;;9.60;;
74344;SDS011;62776;50.518;6.732;2023-07-02T06:50:25;14.02;;;10.38;;
74344;SDS011;62776;50.518;6.732;2023-07-02T06:53:14;14.85;;;10.75;;
74344;SDS011;62776;50.518;6.732;2023-07-02T06:56:02;12.25;;;10.07;;
74344;SDS011;62776;50.518;6.732;2023-07-02T06:58:49;17.30;;;11.95;;
74344;SDS011;62776;50.518;6.732;2023-07-02T07:01:35;13.35;;;10.73;;
74344;SDS011;62776;50.518;6.732;2023-07-02T07:04:30;12.27;;;10.85;;
74344;SDS011;62776;50.518;6.732;2023-07-02T07:07:17;11.13;;;9.68;;
74344;SDS011;62776;50.518;6.732;2023-07-02T07:10:04;12.20;;;9.63;;
74344;SDS011;62776;50.518;6.732;2023-07-02T07:12:55;14.35;;;9.13;;
74344;SDS011;62776;50.518;6.732;2023-07-02T07:15:44;12.23;;;10.63;;
74344;SDS011;62776;50.518;6.732;2023-07-02T07:18:31;11.25;;;9.15;;
74344;SDS011;62776;50.518;6.732;2023-07-02T07:21:18;18.95;;;10.40;;
74344;SDS011;62776;50.518;6.732;2023-07-02T07:24:07;13.50;;;10.05;;
74344;SDS011;62776;50.518;6.732;2023-07-02T07:26:53;12.23;;;9.70;;
74344;SDS011;62776;50.518;6.732;2023-07-02T07:29:39;14.73;;;10.82;;
74344;SDS011;62776;50.518;6.732;2023-07-02T07:32:26;10.18;;;9.10;;
74344;SDS011;62776;50.518;6.732;2023-07-02T07:35:13;12.88;;;9.15;;
74344;SDS011;62776;50.518;6.732;2023-07-02T07:37:59;11.25;;;9.25;;
74344;SDS011;62776;50.518;6.732;2023-07-02T07:40:45;11.05;;;9.88;;
74344;SDS011;62776;50.518;6.732;2023-07-02T07:43:34;11.18;;;9.98;;
74344;SDS011;62776;50.518;6.732;2023-07-02T07:46:20;10.57;;;8.95;;
74344;SDS011;62776;50.518;6.732;2023-07-02T07:49:07;12.02;;;8.57;;
74344;SDS011;62776;50.518;6.732;2023-07-02T07:51:54;10.15;;;8.60;;
74344;SDS011;62776;50.518;6.732;2023-07-02T07:54:40;11.45;;;8.93;;
74344;SDS011;62776;50.518;6.732;2023-07-02T07:57:28;9.00;;;8.10;;
74344;SDS011;62776;50.518;6.732;2023-07-02T08:00:15;13.68;;;8.93;;
74344;SDS011;62776;50.518;6.732;2023-07-02T08:03:10;10.70;;;8.65;;
74344;SDS011;62776;50.518;6.732;2023-07-02T08:05:57;10.48;;;8.18;;
74344;SDS011;62776;50.518;6.732;2023-07-02T08:08:45;12.02;;;8.95;;
74344;SDS011;62776;50.518;6.732;2023-07-02T08:11:31;11.50;;;8.57;;
74344;SDS011;62776;50.518;6.732;2023-07-02T08:14:20;10.50;;;8.38;;
74344;SDS011;62776;50.518;6.732;2023-07-02T08:17:08;10.05;;;7.80;;
74344;SDS011;62776;50.518;6.732;2023-07-02T08:19:55;8.65;;;7.50;;
74344;SDS011;62776;50.518;6.732;2023-07-02T08:22:43;10.40;;;7.45;;
74344;SDS011;62776;50.518;6.732;2023-07-02T08:25:31;8.73;;;7.20;;
74344;SDS011;62776;50.518;6.732;2023-07-02T08:28:18;8.95;;;7.20;;
74344;SDS011;62776;50.518;6.732;2023-07-02T08:31:04;8.05;;;7.25;;
74344;SDS011;62776;50.518;6.732;2023-07-02T08:33:53;10.55;;;7.80;;
74344;SDS011;62776;50.518;6.732;2023-07-02T08:36:43;8.07;;;7.25;;
74344;SDS011;62776;50.518;6.732;2023-07-02T08:39:40;8.55;;;7.40;;
74344;SDS011;62776;50.518;6.732;2023-07-02T08:42:26;7.63;;;6.60;;
74344;SDS011;62776;50.518;6.732;2023-07-02T08:45:15;7.63;;;5.68;;
74344;SDS011;62776;50.518;6.732;2023-07-02T08:48:01;9.48;;;6.38;;
74344;SDS011;62776;50.518;6.732;2023-07-02T08:50:50;8.63;;;6.95;;
74344;SDS011;62776;50.518;6.732;2023-07-02T08:53:37;7.70;;;6.38;;
74344;SDS011;62776;50.518;6.732;2023-07-02T08:56:28;8.23;;;6.80;;
74344;SDS011;62776;50.518;6.732;2023-07-02T08:59:17;7.53;;;6.25;;
74344;SDS011;62776;50.518;6.732;2023-07-02T09:02:03;10.15;;;6.85;;
74344;SDS011;62776;50.518;6.732;2023-07-02T09:04:58;7.97;;;6.78;;
74344;SDS011;62776;50.518;6.732;2023-07-02T09:07:48;8.07;;;6.35;;
74344;SDS011;62776;50.518;6.732;2023-07-02T09:10:37;8.20;;;7.15;;
74344;SDS011;62776;50.518;6.732;2023-07-02T09:13:24;8.65;;;6.85;;
74344;SDS011;62776;50.518;6.732;2023-07-02T09:19:09;6.78;;;6.10;;
74344;SDS011;62776;50.518;6.732;2023-07-02T09:22:00;7.32;;;6.40;;
74344;SDS011;62776;50.518;6.732;2023-07-02T09:24:52;7.32;;;6.60;;
74344;SDS011;62776;50.518;6.732;2023-07-02T09:27:44;8.90;;;6.75;;
74344;SDS011;62776;50.518;6.732;2023-07-02T09:30:31;7.28;;;6.55;;
74344;SDS011;62776;50.518;6.732;2023-07-02T09:33:17;10.77;;;6.50;;
74344;SDS011;62776;50.518;6.732;2023-07-02T09:36:04;6.57;;;5.90;;
74344;SDS011;62776;50.518;6.732;2023-07-02T09:38:55;6.30;;;5.70;;
74344;SDS011;62776;50.518;6.732;2023-07-02T09:41:42;6.97;;;6.28;;
74344;SDS011;62776;50.518;6.732;2023-07-02T09:44:30;9.15;;;7.07;;
74344;SDS011;62776;50.518;6.732;2023-07-02T09:47:18;6.18;;;5.57;;
74344;SDS011;62776;50.518;6.732;2023-07-02T09:50:06;9.52;;;6.47;;
74344;SDS011;62776;50.518;6.732;2023-07-02T09:52:53;7.43;;;6.28;;
74344;SDS011;62776;50.518;6.732;2023-07-02T09:55:42;6.82;;;6.00;;
74344;SDS011;62776;50.518;6.732;2023-07-02T09:58:29;9.57;;;6.78;;
74344;SDS011;62776;50.518;6.732;2023-07-02T10:01:16;9.85;;;6.45;;
74344;SDS011;62776;50.518;6.732;2023-07-02T10:04:11;8.30;;;6.50;;
74344;SDS011;62776;50.518;6.732;2023-07-02T10:06:59;7.78;;;6.43;;
74344;SDS011;62776;50.518;6.732;2023-07-02T10:09:46;7.63;;;6.45;;
74344;SDS011;62776;50.518;6.732;2023-07-02T10:12:34;9.73;;;6.72;;
74344;SDS011;62776;50.518;6.732;2023-07-02T10:15:30;9.40;;;6.15;;
74344;SDS011;62776;50.518;6.732;2023-07-02T10:18:25;7.07;;;6.32;;
74344;SDS011;62776;50.518;6.732;2023-07-02T10:21:14;7.95;;;6.85;;
74344;SDS011;62776;50.518;6.732;2023-07-02T10:24:08;10.77;;;7.00;;
74344;SDS011;62776;50.518;6.732;2023-07-02T10:26:56;8.18;;;7.07;;
74344;SDS011;62776;50.518;6.732;2023-07-02T10:29:49;8.55;;;7.43;;
74344;SDS011;62776;50.518;6.732;2023-07-02T10:32:36;9.65;;;6.93;;
74344;SDS011;62776;50.518;6.732;2023-07-02T10:35:25;9.68;;;7.53;;
74344;SDS011;62776;50.518;6.732;2023-07-02T10:38:21;7.88;;;6.63;;
74344;SDS011;62776;50.518;6.732;2023-07-02T10:41:12;8.55;;;7.13;;
74344;SDS011;62776;50.518;6.732;2023-07-02T10:44:13;11.23;;;7.05;;
74344;SDS011;62776;50.518;6.732;2023-07-02T10:47:03;8.50;;;6.95;;
74344;SDS011;62776;50.518;6.732;2023-07-02T10:49:50;11.05;;;7.78;;
74344;SDS011;62776;50.518;6.732;2023-07-02T10:52:37;10.75;;;7.65;;
74344;SDS011;62776;50.518;6.732;2023-07-02T10:55:26;7.00;;;6.30;;
74344;SDS011;62776;50.518;6.732;2023-07-02T10:58:13;9.50;;;7.65;;
74344;SDS011;62776;50.518;6.732;2023-07-02T11:01:04;8.23;;;6.55;;
74344;SDS011;62776;50.518;6.732;2023-07-02T11:03:58;9.55;;;7.25;;
74344;SDS011;62776;50.518;6.732;2023-07-02T11:06:45;9.07;;;7.15;;
74344;SDS011;62776;50.518;6.732;2023-07-02T11:09:34;9.75;;;7.60;;
74344;SDS011;62776;50.518;6.732;2023-07-02T11:12:31;7.55;;;5.82;;
74344;SDS011;62776;50.518;6.732;2023-07-02T11:15:19;11.55;;;7.30;;
74344;SDS011;62776;50.518;6.732;2023-07-02T11:18:15;8.98;;;6.47;;
74344;SDS011;62776;50.518;6.732;2023-07-02T11:21:10;8.18;;;7.18;;
74344;SDS011;62776;50.518;6.732;2023-07-02T11:24:03;8.68;;;6.90;;
74344;SDS011;62776;50.518;6.732;2023-07-02T11:26:57;9.82;;;6.97;;
74344;SDS011;62776;50.518;6.732;2023-07-02T11:29:44;11.18;;;6.93;;
74344;SDS011;62776;50.518;6.732;2023-07-02T11:32:54;8.35;;;7.35;;
74344;SDS011;62776;50.518;6.732;2023-07-02T11:35:42;8.38;;;6.75;;
74344;SDS011;62776;50.518;6.732;2023-07-02T11:38:28;8.18;;;6.20;;
74344;SDS011;62776;50.518;6.732;2023-07-02T11:41:17;7.68;;;6.28;;
74344;SDS011;62776;50.518;6.732;2023-07-02T11:44:06;7.38;;;6.28;;
74344;SDS011;62776;50.518;6.732;2023-07-02T11:46:53;8.80;;;7.10;;
74344;SDS011;62776;50.518;6.732;2023-07-02T11:49:48;9.77;;;7.10;;
74344;SDS011;62776;50.518;6.732;2023-07-02T11:52:34;9.07;;;6.57;;
74344;SDS011;62776;50.518;6.732;2023-07-02T11:55:20;9.63;;;6.60;;
74344;SDS011;62776;50.518;6.732;2023-07-02T11:58:07;9.27;;;6.18;;
74344;SDS011;62776;50.518;6.732;2023-07-02T12:00:54;8.10;;;6.55;;
74344;SDS011;62776;50.518;6.732;2023-07-02T12:03:50;8.57;;;5.65;;
74344;SDS011;62776;50.518;6.732;2023-07-02T12:06:40;9.75;;;7.05;;
74344;SDS011;62776;50.518;6.732;2023-07-02T12:09:27;8.98;;;6.85;;
74344;SDS011;62776;50.518;6.732;2023-07-02T12:12:13;8.85;;;6.57;;
74344;SDS011;62776;50.518;6.732;2023-07-02T12:15:01;7.80;;;6.60;;
74344;SDS011;62776;50.518;6.732;2023-07-02T12:17:48;7.50;;;6.30;;
74344;SDS011;62776;50.518;6.732;2023-07-02T12:20:35;8.15;;;6.55;;
74344;SDS011;62776;50.518;6.732;2023-07-02T12:23:21;9.02;;;6.22;;
74344;SDS011;62776;50.518;6.732;2023-07-02T12:26:14;7.85;;;6.70;;
74344;SDS011;62776;50.518;6.732;2023-07-02T12:29:00;11.13;;;6.68;;
74344;SDS011;62776;50.518;6.732;2023-07-02T12:31:47;8.48;;;6.38;;
74344;SDS011;62776;50.518;6.732;2023-07-02T12:34:35;13.02;;;7.03;;
74344;SDS011;62776;50.518;6.732;2023-07-02T12:37:24;7.57;;;6.05;;
74344;SDS011;62776;50.518;6.732;2023-07-02T12:40:13;8.45;;;5.72;;
74344;SDS011;62776;50.518;6.732;2023-07-02T12:43:03;7.93;;;6.13;;
74344;SDS011;62776;50.518;6.732;2023-07-02T12:45:59;8.63;;;7.03;;
74344;SDS011;62776;50.518;6.732;2023-07-02T12:48:45;7.55;;;6.07;;
74344;SDS011;62776;50.518;6.732;2023-07-02T12:51:31;6.90;;;5.80;;
74344;SDS011;62776;50.518;6.732;2023-07-02T12:54:22;8.93;;;6.68;;
74344;SDS011;62776;50.518;6.732;2023-07-02T12:57:08;9.25;;;6.97;;
74344;SDS011;62776;50.518;6.732;2023-07-02T12:59:55;9.52;;;6.47;;
74344;SDS011;62776;50.518;6.732;2023-07-02T13:02:45;8.85;;;7.13;;
74344;SDS011;62776;50.518;6.732;2023-07-02T13:05:34;8.52;;;6.47;;
74344;SDS011;62776;50.518;6.732;2023-07-02T13:08:28;8.93;;;6.93;;
74344;SDS011;62776;50.518;6.732;2023-07-02T13:11:17;9.32;;;5.85;;
74344;SDS011;62776;50.518;6.732;2023-07-02T13:14:03;7.32;;;6.03;;
74344;SDS011;62776;50.518;6.732;2023-07-02T13:16:57;6.97;;;5.32;;
74344;SDS011;62776;50.518;6.732;2023-07-02T13:19:47;7.68;;;6.50;;
74344;SDS011;62776;50.518;6.732;2023-07-02T13:22:35;9.68;;;7.15;;
74344;SDS011;62776;50.518;6.732;2023-07-02T13:25:22;8.75;;;6.50;;
74344;SDS011;62776;50.518;6.732;2023-07-02T13:28:09;8.65;;;6.20;;
74344;SDS011;62776;50.518;6.732;2023-07-02T13:30:56;8.65;;;6.10;;
74344;SDS011;62776;50.518;6.732;2023-07-02T13:33:42;7.97;;;6.00;;
74344;SDS011;62776;50.518;6.732;2023-07-02T13:36:28;7.25;;;6.00;;
74344;SDS011;62776;50.518;6.732;2023-07-02T13:39:17;7.60;;;5.88;;
74344;SDS011;62776;50.518;6.732;2023-07-02T13:42:09;10.02;;;6.60;;
74344;SDS011;62776;50.518;6.732;2023-07-02T13:45:05;7.25;;;6.57;;
74344;SDS011;62776;50.518;6.732;2023-07-02T13:47:57;9.55;;;6.75;;
74344;SDS011;62776;50.518;6.732;2023-07-02T13:50:46;10.80;;;6.75;;
74344;SDS011;62776;50.518;6.732;2023-07-02T13:53:33;7.35;;;6.28;;
74344;SDS011;62776;50.518;6.732;2023-07-02T13:56:22;10.05;;;6.95;;
74344;SDS011;62776;50.518;6.732;2023-07-02T13:59:09;11.38;;;6.20;;
74344;SDS011;62776;50.518;6.732;2023-07-02T14:01:56;7.53;;;6.55;;
74344;SDS011;62776;50.518;6.732;2023-07-02T14:04:44;9.32;;;6.88;;
74344;SDS011;62776;50.518;6.732;2023-07-02T14:07:31;8.52;;;6.57;;
74344;SDS011;62776;50.518;6.732;2023-07-02T14:10:18;11.35;;;6.88;;
74344;SDS011;62776;50.518;6.732;2023-07-02T14:13:07;8.45;;;6.28;;
74344;SDS011;62776;50.518;6.732;2023-07-02T14:15:59;6.20;;;5.60;;
74344;SDS011;62776;50.518;6.732;2023-07-02T14:18:46;8.88;;;5.70;;
74344;SDS011;62776;50.518;6.732;2023-07-02T14:21:36;7.55;;;6.25;;
74344;SDS011;62776;50.518;6.732;2023-07-02T14:24:45;9.00;;;5.93;;
74344;SDS011;62776;50.518;6.732;2023-07-02T14:27:34;15.27;;;5.32;;
74344;SDS011;62776;50.518;6.732;2023-07-02T14:30:21;8.48;;;5.60;;
74344;SDS011;62776;50.518;6.732;2023-07-02T14:33:15;18.75;;;6.70;;
74344;SDS011;62776;50.518;6.732;2023-07-02T14:36:11;8.13;;;5.88;;
74344;SDS011;62776;50.518;6.732;2023-07-02T14:38:58;7.32;;;6.05;;
74344;SDS011;62776;50.518;6.732;2023-07-02T14:41:44;6.93;;;5.93;;
74344;SDS011;62776;50.518;6.732;2023-07-02T14:44:31;7.07;;;5.60;;
74344;SDS011;62776;50.518;6.732;2023-07-02T14:47:17;9.30;;;6.22;;
74344;SDS011;62776;50.518;6.732;2023-07-02T14:50:04;7.60;;;5.65;;
74344;SDS011;62776;50.518;6.732;2023-07-02T14:52:50;7.13;;;5.70;;
74344;SDS011;62776;50.518;6.732;2023-07-02T14:55:38;8.18;;;5.68;;
74344;SDS011;62776;50.518;6.732;2023-07-02T14:58:31;7.07;;;5.45;;
74344;SDS011;62776;50.518;6.732;2023-07-02T15:01:18;7.85;;;5.38;;
74344;SDS011;62776;50.518;6.732;2023-07-02T15:04:08;6.72;;;5.30;;
74344;SDS011;62776;50.518;6.732;2023-07-02T15:06:57;6.68;;;5.50;;
74344;SDS011;62776;50.518;6.732;2023-07-02T15:09:45;8.55;;;5.60;;
74344;SDS011;62776;50.518;6.732;2023-07-02T15:12:32;6.20;;;5.22;;
74344;SDS011;62776;50.518;6.732;2023-07-02T15:15:19;7.45;;;5.10;;
74344;SDS011;62776;50.518;6.732;2023-07-02T15:18:07;6.38;;;5.15;;
74344;SDS011;62776;50.518;6.732;2023-07-02T15:20:55;6.97;;;6.05;;
74344;SDS011;62776;50.518;6.732;2023-07-02T15:23:42;7.80;;;5.18;;
74344;SDS011;62776;50.518;6.732;2023-07-02T15:26:28;7.43;;;4.80;;
74344;SDS011;62776;50.518;6.732;2023-07-02T15:29:14;8.63;;;5.93;;
74344;SDS011;62776;50.518;6.732;2023-07-02T15:32:02;5.78;;;4.93;;
74344;SDS011;62776;50.518;6.732;2023-07-02T15:34:53;7.88;;;5.35;;
74344;SDS011;62776;50.518;6.732;2023-07-02T15:37:41;7.00;;;5.30;;
74344;SDS011;62776;50.518;6.732;2023-07-02T15:40:28;6.00;;;4.97;;
74344;SDS011;62776;50.518;6.732;2023-07-02T15:43:15;5.85;;;4.82;;
74344;SDS011;62776;50.518;6.732;2023-07-02T15:46:02;9.10;;;5.43;;
74344;SDS011;62776;50.518;6.732;2023-07-02T15:48:48;5.32;;;4.60;;
74344;SDS011;62776;50.518;6.732;2023-07-02T15:51:38;7.47;;;5.28;;
74344;SDS011;62776;50.518;6.732;2023-07-02T15:54:26;6.03;;;5.30;;
74344;SDS011;62776;50.518;6.732;2023-07-02T15:57:13;7.35;;;5.40;;
74344;SDS011;62776;50.518;6.732;2023-07-02T16:00:01;7.40;;;5.03;;
74344;SDS011;62776;50.518;6.732;2023-07-02T16:02:49;7.53;;;4.85;;
74344;SDS011;62776;50.518;6.732;2023-07-02T16:05:37;9.60;;;5.90;;
74344;SDS011;62776;50.518;6.732;2023-07-02T16:08:23;8.32;;;5.47;;
74344;SDS011;62776;50.518;6.732;2023-07-02T16:11:11;6.95;;;5.13;;
74344;SDS011;62776;50.518;6.732;2023-07-02T16:13:58;6.72;;;4.60;;
74344;SDS011;62776;50.518;6.732;2023-07-02T16:16:49;5.15;;;4.65;;
74344;SDS011;62776;50.518;6.732;2023-07-02T16:19:43;7.70;;;5.50;;
74344;SDS011;62776;50.518;6.732;2023-07-02T16:22:32;10.15;;;6.28;;
74344;SDS011;62776;50.518;6.732;2023-07-02T16:25:20;7.13;;;5.20;;
74344;SDS011;62776;50.518;6.732;2023-07-02T16:28:06;8.73;;;5.78;;
74344;SDS011;62776;50.518;6.732;2023-07-02T16:30:53;7.80;;;5.50;;
74344;SDS011;62776;50.518;6.732;2023-07-02T16:33:40;9.35;;;5.00;;
74344;SDS011;62776;50.518;6.732;2023-07-02T16:36:26;5.70;;;5.10;;
74344;SDS011;62776;50.518;6.732;2023-07-02T16:39:12;6.50;;;5.55;;
74344;SDS011;62776;50.518;6.732;2023-07-02T16:42:00;6.55;;;5.25;;
74344;SDS011;62776;50.518;6.732;2023-07-02T16:44:47;6.90;;;5.40;;
74344;SDS011;62776;50.518;6.732;2023-07-02T16:47:35;6.45;;;4.90;;
74344;SDS011;62776;50.518;6.732;2023-07-02T16:50:23;7.57;;;5.35;;
74344;SDS011;62776;50.518;6.732;2023-07-02T16:53:09;10.10;;;6.38;;
74344;SDS011;62776;50.518;6.732;2023-07-02T16:55:58;9.52;;;4.75;;